Terminal Aerodrome Forecast
Issued by NWS

Home | Current Version | Previous Version | Text Only | Print | Product List | Glossary On
Versions: 1 2 3 4 5 6 7 8 9 10 11 12 13 14 15 16 17 18 19 20
217
FTUS42 KMLB 250258 AAD
TAFSFB
TAF AMD
KSFB 250258Z 2503/2524 00000KT P6SM VCSH FEW040 BKN080
      TEMPO 2503/2504 -RA BKN040 OVC080
     FM250400 VRB03KT P6SM FEW030 SCT060 BKN150
     FM251400 17007KT P6SM SCT030 SCT080 SCT250
     FM251900 14008KT P6SM VCTS SCT040CB SCT250=

USA.gov is the U.S. government's official web portal to all federal, state and local government web resources and services.